sensor_id;sensor_type;location;lat;lon;timestamp;pressure;altitude;pressure_sealevel;temperature;humidity
34197;BME280;36594;45.192;5.722;2023-05-09T00:00:03;99413.09;;;26.61;40.94
34197;BME280;36594;45.192;5.722;2023-05-09T00:02:51;99413.09;;;26.61;41.00
34197;BME280;36594;45.192;5.722;2023-05-09T00:05:40;99419.72;;;26.60;40.94
34197;BME280;36594;45.192;5.722;2023-05-09T00:08:29;99412.27;;;26.58;40.84
34197;BME280;36594;45.192;5.722;2023-05-09T00:11:17;99412.27;;;26.58;40.92
34197;BME280;36594;45.192;5.722;2023-05-09T00:14:06;99410.87;;;26.55;40.83
34197;BME280;36594;45.192;5.722;2023-05-09T00:16:54;99401.22;;;26.55;40.93
34197;BME280;36594;45.192;5.722;2023-05-09T00:19:44;99401.77;;;26.55;40.80
34197;BME280;36594;45.192;5.722;2023-05-09T00:22:34;99405.08;;;26.57;40.79
34197;BME280;36594;45.192;5.722;2023-05-09T00:25:22;99396.53;;;26.53;40.83
34197;BME280;36594;45.192;5.722;2023-05-09T00:28:11;99401.48;;;26.56;40.86
34197;BME280;36594;45.192;5.722;2023-05-09T00:30:59;99404.22;;;26.54;40.73
34197;BME280;36594;45.192;5.722;2023-05-09T00:33:48;99405.59;;;26.54;40.75
34197;BME280;36594;45.192;5.722;2023-05-09T00:36:36;99404.52;;;26.55;40.85
34197;BME280;36594;45.192;5.722;2023-05-09T00:39:25;99406.46;;;26.57;40.87
34197;BME280;36594;45.192;5.722;2023-05-09T00:42:14;99398.45;;;26.53;40.75
34197;BME280;36594;45.192;5.722;2023-05-09T00:45:03;99393.50;;;26.55;40.83
34197;BME280;36594;45.192;5.722;2023-05-09T00:47:51;99394.31;;;26.53;40.74
34197;BME280;36594;45.192;5.722;2023-05-09T00:50:40;99399.84;;;26.55;40.81
34197;BME280;36594;45.192;5.722;2023-05-09T00:53:29;99397.06;;;26.53;40.80
34197;BME280;36594;45.192;5.722;2023-05-09T00:56:18;99390.72;;;26.52;40.83
34197;BME280;36594;45.192;5.722;2023-05-09T00:59:08;99381.08;;;26.52;40.75
34197;BME280;36594;45.192;5.722;2023-05-09T01:01:57;99380.80;;;26.54;40.91
34197;BME280;36594;45.192;5.722;2023-05-09T01:04:46;99365.11;;;26.54;40.83
34197;BME280;36594;45.192;5.722;2023-05-09T01:07:45;99364.84;;;26.53;40.73
34197;BME280;36594;45.192;5.722;2023-05-09T01:10:57;99365.41;;;26.55;40.92
34197;BME280;36594;45.192;5.722;2023-05-09T01:13:48;99378.05;;;26.54;40.83
34197;BME280;36594;45.192;5.722;2023-05-09T01:22:33;99356.54;;;26.48;40.81
34197;BME280;36594;45.192;5.722;2023-05-09T01:26:01;99356.23;;;26.47;40.85
34197;BME280;36594;45.192;5.722;2023-05-09T01:31:50;99341.06;;;26.45;40.96
34197;BME280;36594;45.192;5.722;2023-05-09T01:34:41;99336.89;;;26.40;40.92
34197;BME280;36594;45.192;5.722;2023-05-09T01:37:32;99346.03;;;26.45;40.91
34197;BME280;36594;45.192;5.722;2023-05-09T01:40:22;99352.11;;;26.47;40.88
34197;BME280;36594;45.192;5.722;2023-05-09T01:43:15;99344.13;;;26.46;40.74
34197;BME280;36594;45.192;5.722;2023-05-09T01:46:05;99344.36;;;26.44;40.79
34197;BME280;36594;45.192;5.722;2023-05-09T01:48:55;99344.16;;;26.51;40.88
34197;BME280;36594;45.192;5.722;2023-05-09T01:51:44;99343.87;;;26.50;40.80
34197;BME280;36594;45.192;5.722;2023-05-09T01:54:35;99343.87;;;26.50;40.86
34197;BME280;36594;45.192;5.722;2023-05-09T01:57:25;99339.71;;;26.47;40.71
34197;BME280;36594;45.192;5.722;2023-05-09T02:00:16;99337.80;;;26.48;40.71
34197;BME280;36594;45.192;5.722;2023-05-09T02:03:06;99344.73;;;26.53;40.68
34197;BME280;36594;45.192;5.722;2023-05-09T02:05:56;99340.84;;;26.49;40.60
34197;BME280;36594;45.192;5.722;2023-05-09T02:08:46;99332.57;;;26.51;40.74
34197;BME280;36594;45.192;5.722;2023-05-09T02:11:35;99333.43;;;26.54;40.67
34197;BME280;36594;45.192;5.722;2023-05-09T02:14:23;99328.72;;;26.50;40.62
34197;BME280;36594;45.192;5.722;2023-05-09T02:17:12;99337.54;;;26.52;40.56
34197;BME280;36594;45.192;5.722;2023-05-09T02:20:02;99336.70;;;26.51;40.60
34197;BME280;36594;45.192;5.722;2023-05-09T02:22:51;99336.14;;;26.49;40.50
34197;BME280;36594;45.192;5.722;2023-05-09T02:25:40;99329.25;;;26.49;40.63
34197;BME280;36594;45.192;5.722;2023-05-09T02:28:29;99328.73;;;26.52;40.61
34197;BME280;36594;45.192;5.722;2023-05-09T02:31:21;99333.70;;;26.53;40.68
34197;BME280;36594;45.192;5.722;2023-05-09T02:34:11;99336.44;;;26.50;40.64
34197;BME280;36594;45.192;5.722;2023-05-09T02:37:01;99337.52;;;26.49;40.66
34197;BME280;36594;45.192;5.722;2023-05-09T02:39:50;99346.63;;;26.50;40.54
34197;BME280;36594;45.192;5.722;2023-05-09T02:42:38;99342.48;;;26.50;40.64
34197;BME280;36594;45.192;5.722;2023-05-09T02:45:27;99339.46;;;26.51;40.48
34197;BME280;36594;45.192;5.722;2023-05-09T02:48:15;99344.16;;;26.51;40.49
34197;BME280;36594;45.192;5.722;2023-05-09T02:51:04;99347.19;;;26.52;40.59
34197;BME280;36594;45.192;5.722;2023-05-09T02:53:52;99335.63;;;26.52;40.51
34197;BME280;36594;45.192;5.722;2023-05-09T02:56:41;99336.70;;;26.51;40.47
34197;BME280;36594;45.192;5.722;2023-05-09T02:59:30;99342.48;;;26.50;40.41
34197;BME280;36594;45.192;5.722;2023-05-09T03:02:20;99340.57;;;26.50;40.39
34197;BME280;36594;45.192;5.722;2023-05-09T03:05:10;99342.48;;;26.50;40.49
34197;BME280;36594;45.192;5.722;2023-05-09T03:07:59;99342.22;;;26.49;40.46
34197;BME280;36594;45.192;5.722;2023-05-09T03:10:47;99335.60;;;26.50;40.46
34197;BME280;36594;45.192;5.722;2023-05-09T03:13:36;99334.74;;;26.47;40.51
34197;BME280;36594;45.192;5.722;2023-05-09T03:16:24;99331.98;;;26.47;40.42
34197;BME280;36594;45.192;5.722;2023-05-09T03:19:12;99331.16;;;26.44;40.48
34197;BME280;36594;45.192;5.722;2023-05-09T03:22:01;99332.27;;;26.45;40.47
34197;BME280;36594;45.192;5.722;2023-05-09T03:24:51;99335.88;;;26.48;40.51
34197;BME280;36594;45.192;5.722;2023-05-09T03:27:40;99335.30;;;26.44;40.44
34197;BME280;36594;45.192;5.722;2023-05-09T03:30:30;99328.43;;;26.46;40.61
34197;BME280;36594;45.192;5.722;2023-05-09T03:33:18;99334.50;;;26.48;40.56
34197;BME280;36594;45.192;5.722;2023-05-09T03:36:08;99336.72;;;26.49;40.54
34197;BME280;36594;45.192;5.722;2023-05-09T03:38:58;99337.48;;;26.44;40.46
34197;BME280;36594;45.192;5.722;2023-05-09T03:41:47;99335.31;;;26.46;40.52
34197;BME280;36594;45.192;5.722;2023-05-09T03:44:36;99335.58;;;26.47;40.60
34197;BME280;36594;45.192;5.722;2023-05-09T03:47:24;99324.84;;;26.46;40.63
34197;BME280;36594;45.192;5.722;2023-05-09T03:50:13;99330.88;;;26.45;40.58
34197;BME280;36594;45.192;5.722;2023-05-09T03:53:02;99323.72;;;26.47;40.51
34197;BME280;36594;45.192;5.722;2023-05-09T03:55:51;99325.08;;;26.44;40.54
34197;BME280;36594;45.192;5.722;2023-05-09T03:58:40;99330.59;;;26.44;40.48
34197;BME280;36594;45.192;5.722;2023-05-09T04:01:30;99338.61;;;26.46;40.51
34197;BME280;36594;45.192;5.722;2023-05-09T04:04:19;99339.69;;;26.45;40.54
34197;BME280;36594;45.192;5.722;2023-05-09T04:07:09;99337.48;;;26.44;40.43
34197;BME280;36594;45.192;5.722;2023-05-09T04:09:57;99333.34;;;26.44;40.47
34197;BME280;36594;45.192;5.722;2023-05-09T04:12:46;99331.98;;;26.42;40.50
34197;BME280;36594;45.192;5.722;2023-05-09T04:15:36;99327.30;;;26.45;40.60
34197;BME280;36594;45.192;5.722;2023-05-09T04:18:25;99324.30;;;26.46;40.47
34197;BME280;36594;45.192;5.722;2023-05-09T04:21:13;99323.13;;;26.40;40.55
34197;BME280;36594;45.192;5.722;2023-05-09T04:24:02;99322.31;;;26.39;40.57
34197;BME280;36594;45.192;5.722;2023-05-09T04:26:52;99326.17;;;26.41;40.66
34197;BME280;36594;45.192;5.722;2023-05-09T04:29:42;99326.40;;;26.34;40.11
34197;BME280;36594;45.192;5.722;2023-05-09T04:32:31;99327.80;;;26.37;39.93
34197;BME280;36594;45.192;5.722;2023-05-09T04:35:21;99334.97;;;26.40;40.02
34197;BME280;36594;45.192;5.722;2023-05-09T04:38:10;99326.15;;;26.38;40.38
34197;BME280;36594;45.192;5.722;2023-05-09T04:40:59;99326.69;;;26.38;40.42
34197;BME280;36594;45.192;5.722;2023-05-09T04:43:48;99329.22;;;26.42;40.53
34197;BME280;36594;45.192;5.722;2023-05-09T04:46:36;99323.98;;;26.43;40.48
34197;BME280;36594;45.192;5.722;2023-05-09T04:49:25;99328.95;;;26.43;40.43
34197;BME280;36594;45.192;5.722;2023-05-09T04:52:13;99328.11;;;26.43;40.39
34197;BME280;36594;45.192;5.722;2023-05-09T04:55:03;99333.34;;;26.44;40.29
34197;BME280;36594;45.192;5.722;2023-05-09T04:57:53;99327.57;;;26.43;40.29
34197;BME280;36594;45.192;5.722;2023-05-09T05:00:42;99325.92;;;26.45;40.29
34197;BME280;36594;45.192;5.722;2023-05-09T05:03:32;99320.14;;;26.44;40.18
34197;BME280;36594;45.192;5.722;2023-05-09T05:06:20;99316.02;;;26.44;40.25
34197;BME280;36594;45.192;5.722;2023-05-09T05:09:08;99317.63;;;26.42;40.29
34197;BME280;36594;45.192;5.722;2023-05-09T05:11:57;99321.22;;;26.43;40.28
34197;BME280;36594;45.192;5.722;2023-05-09T05:14:46;99321.22;;;26.43;40.27
34197;BME280;36594;45.192;5.722;2023-05-09T05:17:37;99322.90;;;26.44;40.26
34197;BME280;36594;45.192;5.722;2023-05-09T05:20:26;99319.84;;;26.43;40.29
34197;BME280;36594;45.192;5.722;2023-05-09T05:23:15;99315.17;;;26.43;40.26
34197;BME280;36594;45.192;5.722;2023-05-09T05:26:04;99316.55;;;26.43;40.29
34197;BME280;36594;45.192;5.722;2023-05-09T05:28:54;99322.34;;;26.42;40.22
34197;BME280;36594;45.192;5.722;2023-05-09T05:31:44;99322.55;;;26.38;40.35
34197;BME280;36594;45.192;5.722;2023-05-09T05:34:33;99321.50;;;26.41;40.34
34197;BME280;36594;45.192;5.722;2023-05-09T05:37:22;99315.72;;;26.43;40.31
34197;BME280;36594;45.192;5.722;2023-05-09T05:40:11;99314.63;;;26.44;40.40
34197;BME280;36594;45.192;5.722;2023-05-09T05:43:00;99315.45;;;26.42;40.28
34197;BME280;36594;45.192;5.722;2023-05-09T05:45:49;99321.18;;;26.38;40.28
34197;BME280;36594;45.192;5.722;2023-05-09T05:48:39;99316.48;;;26.36;40.28
34197;BME280;36594;45.192;5.722;2023-05-09T05:51:28;99315.63;;;26.33;40.27
34197;BME280;36594;45.192;5.722;2023-05-09T05:54:16;99312.61;;;26.32;40.38
34197;BME280;36594;45.192;5.722;2023-05-09T05:57:05;99315.36;;;26.32;40.46
34197;BME280;36594;45.192;5.722;2023-05-09T05:59:54;99306.84;;;26.36;40.59
34197;BME280;36594;45.192;5.722;2023-05-09T06:02:43;99313.47;;;26.35;40.72
34197;BME280;36594;45.192;5.722;2023-05-09T06:05:33;99310.42;;;26.34;40.93
34197;BME280;36594;45.192;5.722;2023-05-09T06:08:22;99305.72;;;26.32;41.01
34197;BME280;36594;45.192;5.722;2023-05-09T06:11:11;99301.05;;;26.32;41.03
34197;BME280;36594;45.192;5.722;2023-05-09T06:13:59;99305.74;;;26.34;40.93
34197;BME280;36594;45.192;5.722;2023-05-09T06:16:47;99303.02;;;26.37;41.29
34197;BME280;36594;45.192;5.722;2023-05-09T06:19:36;99295.83;;;26.36;41.05
34197;BME280;36594;45.192;5.722;2023-05-09T06:22:24;99292.27;;;26.38;41.01
34197;BME280;36594;45.192;5.722;2023-05-09T06:25:12;99289.83;;;26.41;41.36
34197;BME280;36594;45.192;5.722;2023-05-09T06:28:01;99287.91;;;26.42;41.28
34197;BME280;36594;45.192;5.722;2023-05-09T06:30:49;99283.50;;;26.43;41.51
34197;BME280;36594;45.192;5.722;2023-05-09T06:33:37;99274.40;;;26.43;41.35
34197;BME280;36594;45.192;5.722;2023-05-09T06:36:26;99271.94;;;26.44;41.14
34197;BME280;36594;45.192;5.722;2023-05-09T06:39:14;99270.28;;;26.45;41.28
34197;BME280;36594;45.192;5.722;2023-05-09T06:42:02;99268.08;;;26.45;41.27
34197;BME280;36594;45.192;5.722;2023-05-09T06:44:52;99261.19;;;26.45;41.17
34197;BME280;36594;45.192;5.722;2023-05-09T06:47:40;99262.02;;;26.45;41.48
34197;BME280;36594;45.192;5.722;2023-05-09T06:50:29;99257.61;;;26.42;41.16
34197;BME280;36594;45.192;5.722;2023-05-09T06:53:17;99252.92;;;26.45;41.21
34197;BME280;36594;45.192;5.722;2023-05-09T06:56:05;99246.59;;;26.47;41.33
34197;BME280;36594;45.192;5.722;2023-05-09T06:58:54;99241.34;;;26.43;41.39
34197;BME280;36594;45.192;5.722;2023-05-09T07:01:43;99244.94;;;26.43;41.21
34197;BME280;36594;45.192;5.722;2023-05-09T07:04:31;99238.89;;;26.44;41.37
34197;BME280;36594;45.192;5.722;2023-05-09T07:07:19;99230.63;;;26.44;41.44
34197;BME280;36594;45.192;5.722;2023-05-09T07:10:09;99229.79;;;26.43;41.36
34197;BME280;36594;45.192;5.722;2023-05-09T07:12:58;99225.38;;;26.45;41.48
34197;BME280;36594;45.192;5.722;2023-05-09T07:15:46;99224.30;;;26.46;41.22
34197;BME280;36594;45.192;5.722;2023-05-09T07:18:34;99218.25;;;26.46;41.04
34197;BME280;36594;45.192;5.722;2023-05-09T07:21:23;99212.75;;;26.49;41.08
34197;BME280;36594;45.192;5.722;2023-05-09T07:24:11;99206.41;;;26.48;41.03
34197;BME280;36594;45.192;5.722;2023-05-09T07:27:01;99208.89;;;26.50;40.90
34197;BME280;36594;45.192;5.722;2023-05-09T07:29:50;99210.00;;;26.49;40.91
34197;BME280;36594;45.192;5.722;2023-05-09T07:32:39;99207.25;;;26.49;40.85
34197;BME280;36594;45.192;5.722;2023-05-09T07:35:27;99195.11;;;26.50;40.92
34197;BME280;36594;45.192;5.722;2023-05-09T07:38:15;99195.95;;;26.50;40.82
34197;BME280;36594;45.192;5.722;2023-05-09T07:41:03;99179.13;;;26.49;40.78
34197;BME280;36594;45.192;5.722;2023-05-09T07:43:52;99171.98;;;26.48;40.78
34197;BME280;36594;45.192;5.722;2023-05-09T07:46:40;99169.22;;;26.48;40.77
34197;BME280;36594;45.192;5.722;2023-05-09T07:49:29;99160.14;;;26.50;40.74
34197;BME280;36594;45.192;5.722;2023-05-09T07:52:17;99154.89;;;26.51;40.74
34197;BME280;36594;45.192;5.722;2023-05-09T07:55:07;99157.09;;;26.49;40.70
34197;BME280;36594;45.192;5.722;2023-05-09T07:57:56;99155.71;;;26.49;40.69
34197;BME280;36594;45.192;5.722;2023-05-09T08:00:44;99149.13;;;26.50;40.68
34197;BME280;36594;45.192;5.722;2023-05-09T08:03:32;99147.45;;;26.49;40.69
34197;BME280;36594;45.192;5.722;2023-05-09T08:06:21;99146.89;;;26.47;40.71
34197;BME280;36594;45.192;5.722;2023-05-09T08:09:09;99140.28;;;26.46;40.71
34197;BME280;36594;45.192;5.722;2023-05-09T08:11:58;99140.30;;;26.48;40.73
34197;BME280;36594;45.192;5.722;2023-05-09T08:14:46;99142.77;;;26.50;40.68
34197;BME280;36594;45.192;5.722;2023-05-09T08:17:34;99124.33;;;26.50;40.66
34197;BME280;36594;45.192;5.722;2023-05-09T08:20:23;99119.66;;;26.51;40.59
34197;BME280;36594;45.192;5.722;2023-05-09T08:23:11;99117.45;;;26.53;40.65
34197;BME280;36594;45.192;5.722;2023-05-09T08:26:00;99113.32;;;26.53;40.64
34197;BME280;36594;45.192;5.722;2023-05-09T08:28:49;99108.90;;;26.52;40.61
34197;BME280;36594;45.192;5.722;2023-05-09T08:31:37;99112.48;;;26.52;40.62
34197;BME280;36594;45.192;5.722;2023-05-09T08:34:25;99107.81;;;26.53;40.57
34197;BME280;36594;45.192;5.722;2023-05-09T08:37:15;99104.50;;;26.51;40.65
34197;BME280;36594;45.192;5.722;2023-05-09T08:40:06;99093.75;;;26.52;40.59
34197;BME280;36594;45.192;5.722;2023-05-09T08:42:54;99085.77;;;26.53;40.56
34197;BME280;36594;45.192;5.722;2023-05-09T08:45:51;99081.10;;;26.53;40.60
34197;BME280;36594;45.192;5.722;2023-05-09T08:48:41;99077.77;;;26.54;40.53
34197;BME280;36594;45.192;5.722;2023-05-09T08:51:31;99070.87;;;26.51;40.58
34197;BME280;36594;45.192;5.722;2023-05-09T08:54:20;99062.36;;;26.53;40.52
34197;BME280;36594;45.192;5.722;2023-05-09T08:57:09;99059.32;;;26.54;40.59
34197;BME280;36594;45.192;5.722;2023-05-09T08:59:58;99058.78;;;26.55;40.50
34197;BME280;36594;45.192;5.722;2023-05-09T09:02:47;99041.96;;;26.54;40.52
34197;BME280;36594;45.192;5.722;2023-05-09T09:05:37;99042.25;;;26.55;40.51
34197;BME280;36594;45.192;5.722;2023-05-09T09:08:26;99034.53;;;26.54;40.51
34197;BME280;36594;45.192;5.722;2023-05-09T09:11:16;99024.34;;;26.55;40.46
34197;BME280;36594;45.192;5.722;2023-05-09T09:14:15;99014.42;;;26.56;40.46
34197;BME280;36594;45.192;5.722;2023-05-09T09:16:59;99016.63;;;26.57;40.41
34197;BME280;36594;45.192;5.722;2023-05-09T09:19:49;99005.61;;;26.57;40.43
34197;BME280;36594;45.192;5.722;2023-05-09T09:22:41;99002.02;;;26.56;40.43
34197;BME280;36594;45.192;5.722;2023-05-09T09:25:29;99000.94;;;26.55;40.42
34197;BME280;36594;45.192;5.722;2023-05-09T09:28:18;99002.59;;;26.53;40.43
34197;BME280;36594;45.192;5.722;2023-05-09T09:31:21;98992.38;;;26.54;40.41
34197;BME280;36594;45.192;5.722;2023-05-09T09:34:10;98995.97;;;26.54;40.44
34197;BME280;36594;45.192;5.722;2023-05-09T09:37:00;98989.90;;;26.50;40.53
34197;BME280;36594;45.192;5.722;2023-05-09T09:39:55;98986.60;;;26.50;40.49
34197;BME280;36594;45.192;5.722;2023-05-09T09:42:45;98985.77;;;26.52;40.45
34197;BME280;36594;45.192;5.722;2023-05-09T09:45:35;98984.11;;;26.54;40.50
34197;BME280;36594;45.192;5.722;2023-05-09T09:48:27;98981.64;;;26.52;40.45
34197;BME280;36594;45.192;5.722;2023-05-09T09:51:16;98968.95;;;26.51;40.46
34197;BME280;36594;45.192;5.722;2023-05-09T09:54:06;98966.20;;;26.54;40.46
34197;BME280;36594;45.192;5.722;2023-05-09T09:56:55;98957.69;;;26.53;40.46
34197;BME280;36594;45.192;5.722;2023-05-09T09:59:45;98944.74;;;26.53;40.44
34197;BME280;36594;45.192;5.722;2023-05-09T10:02:34;98937.02;;;26.53;40.46
34197;BME280;36594;45.192;5.722;2023-05-09T10:05:28;98934.53;;;26.54;40.43
34197;BME280;36594;45.192;5.722;2023-05-09T10:08:17;98925.72;;;26.54;40.44
34197;BME280;36594;45.192;5.722;2023-05-09T10:11:05;98917.45;;;26.54;40.45
34197;BME280;36594;45.192;5.722;2023-05-09T10:13:53;98919.92;;;26.56;40.40
34197;BME280;36594;45.192;5.722;2023-05-09T10:16:43;98912.78;;;26.55;40.41
34197;BME280;36594;45.192;5.722;2023-05-09T10:19:32;98908.91;;;26.56;40.41
34197;BME280;36594;45.192;5.722;2023-05-09T10:22:20;98905.89;;;26.55;40.38
34197;BME280;36594;45.192;5.722;2023-05-09T10:25:20;98910.86;;;26.55;40.38
34197;BME280;36594;45.192;5.722;2023-05-09T10:28:11;98901.77;;;26.57;40.35
34197;BME280;36594;45.192;5.722;2023-05-09T10:31:26;98902.59;;;26.55;40.32
34197;BME280;36594;45.192;5.722;2023-05-09T10:34:16;98899.55;;;26.57;40.36
34197;BME280;36594;45.192;5.722;2023-05-09T10:37:08;98895.70;;;26.53;40.42
34197;BME280;36594;45.192;5.722;2023-05-09T10:39:58;98889.08;;;26.54;40.43
34197;BME280;36594;45.192;5.722;2023-05-09T10:42:47;98883.86;;;26.55;40.39
34197;BME280;36594;45.192;5.722;2023-05-09T10:45:35;98877.52;;;26.57;40.35
34197;BME280;36594;45.192;5.722;2023-05-09T10:48:25;98876.14;;;26.57;40.31
34197;BME280;36594;45.192;5.722;2023-05-09T10:51:13;98868.16;;;26.58;40.24
34197;BME280;36594;45.192;5.722;2023-05-09T10:54:12;98858.23;;;26.57;40.29
34197;BME280;36594;45.192;5.722;2023-05-09T10:56:54;98862.08;;;26.61;40.16
34197;BME280;36594;45.192;5.722;2023-05-09T10:59:43;98849.97;;;26.59;40.15
34197;BME280;36594;45.192;5.722;2023-05-09T11:02:32;98840.33;;;26.62;40.14
34197;BME280;36594;45.192;5.722;2023-05-09T11:05:21;98844.75;;;26.60;40.05
34197;BME280;36594;45.192;5.722;2023-05-09T11:08:20;98840.88;;;26.59;40.08
34197;BME280;36594;45.192;5.722;2023-05-09T11:11:11;98836.74;;;26.61;40.11
34197;BME280;36594;45.192;5.722;2023-05-09T11:14:00;98831.77;;;26.58;40.07
34197;BME280;36594;45.192;5.722;2023-05-09T11:17:05;98821.88;;;26.62;40.00
34197;BME280;36594;45.192;5.722;2023-05-09T11:19:59;98814.99;;;26.62;39.91
34197;BME280;36594;45.192;5.722;2023-05-09T11:22:51;98806.73;;;26.62;39.90
34197;BME280;36594;45.192;5.722;2023-05-09T11:25:39;98802.84;;;26.61;39.95
34197;BME280;36594;45.192;5.722;2023-05-09T11:28:29;98795.70;;;26.60;39.81
34197;BME280;36594;45.192;5.722;2023-05-09T11:31:18;98793.20;;;26.61;39.84
34197;BME280;36594;45.192;5.722;2023-05-09T11:34:08;98788.27;;;26.60;39.92
34197;BME280;36594;45.192;5.722;2023-05-09T11:37:11;98786.32;;;26.61;39.82
34197;BME280;36594;45.192;5.722;2023-05-09T11:40:03;98795.70;;;26.62;39.80
34197;BME280;36594;45.192;5.722;2023-05-09T11:42:54;98783.57;;;26.58;39.84
34197;BME280;36594;45.192;5.722;2023-05-09T11:45:44;98778.06;;;26.61;39.81
34197;BME280;36594;45.192;5.722;2023-05-09T11:48:40;98780.27;;;26.59;39.67
34197;BME280;36594;45.192;5.722;2023-05-09T11:51:28;98779.18;;;26.60;39.65
34197;BME280;36594;45.192;5.722;2023-05-09T11:54:17;98773.67;;;26.57;39.59
34197;BME280;36594;45.192;5.722;2023-05-09T11:57:06;98784.40;;;26.59;39.58
34197;BME280;36594;45.192;5.722;2023-05-09T11:59:55;98794.05;;;26.59;39.61
34197;BME280;36594;45.192;5.722;2023-05-09T12:02:44;98786.90;;;26.60;39.58
34197;BME280;36594;45.192;5.722;2023-05-09T12:05:33;98802.85;;;26.58;39.58
34197;BME280;36594;45.192;5.722;2023-05-09T12:08:27;98799.84;;;26.60;39.57
34197;BME280;36594;45.192;5.722;2023-05-09T12:11:16;98811.41;;;26.59;39.55
34197;BME280;36594;45.192;5.722;2023-05-09T12:14:04;98821.59;;;26.56;39.54
34197;BME280;36594;45.192;5.722;2023-05-09T12:16:52;98815.53;;;26.57;39.51
34197;BME280;36594;45.192;5.722;2023-05-09T12:19:41;98822.42;;;26.57;39.41
34197;BME280;36594;45.192;5.722;2023-05-09T12:22:32;98826.55;;;26.59;39.38
34197;BME280;36594;45.192;5.722;2023-05-09T12:25:22;98826.27;;;26.56;39.41
34197;BME280;36594;45.192;5.722;2023-05-09T12:28:10;98822.14;;;26.56;39.41
34197;BME280;36594;45.192;5.722;2023-05-09T12:30:58;98820.50;;;26.55;39.42
34197;BME280;36594;45.192;5.722;2023-05-09T12:33:48;98824.09;;;26.58;39.46
34197;BME280;36594;45.192;5.722;2023-05-09T12:36:36;98822.97;;;26.56;39.43
34197;BME280;36594;45.192;5.722;2023-05-09T12:39:25;98820.76;;;26.56;39.45
34197;BME280;36594;45.192;5.722;2023-05-09T12:42:14;98825.47;;;26.58;39.44
34197;BME280;36594;45.192;5.722;2023-05-09T12:45:05;98819.95;;;26.55;39.52
34197;BME280;36594;45.192;5.722;2023-05-09T12:47:55;98827.64;;;26.56;39.54
34197;BME280;36594;45.192;5.722;2023-05-09T12:50:45;98830.39;;;26.56;39.52
34197;BME280;36594;45.192;5.722;2023-05-09T12:53:39;98837.57;;;26.54;39.54
34197;BME280;36594;45.192;5.722;2023-05-09T12:56:32;98835.65;;;26.55;39.56
34197;BME280;36594;45.192;5.722;2023-05-09T12:59:21;98836.73;;;26.54;39.57
34197;BME280;36594;45.192;5.722;2023-05-09T13:02:10;98830.69;;;26.54;39.62
34197;BME280;36594;45.192;5.722;2023-05-09T13:05:12;98833.98;;;26.54;39.62
34197;BME280;36594;45.192;5.722;2023-05-09T13:08:01;98837.86;;;26.55;39.59
34197;BME280;36594;45.192;5.722;2023-05-09T13:10:49;98844.20;;;26.53;39.58
34197;BME280;36594;45.192;5.722;2023-05-09T13:13:38;98837.03;;;26.55;39.61
34197;BME280;36594;45.192;5.722;2023-05-09T13:16:27;98846.95;;;26.53;39.62
34197;BME280;36594;45.192;5.722;2023-05-09T13:19:15;98847.76;;;26.54;39.60
34197;BME280;36594;45.192;5.722;2023-05-09T13:22:03;98846.38;;;26.54;39.60
34197;BME280;36594;45.192;5.722;2023-05-09T13:24:52;98841.70;;;26.54;39.63
34197;BME280;36594;45.192;5.722;2023-05-09T13:27:40;98850.26;;;26.58;39.59
34197;BME280;36594;45.192;5.722;2023-05-09T13:30:30;98853.56;;;26.57;39.60
34197;BME280;36594;45.192;5.722;2023-05-09T13:33:18;98851.34;;;26.57;39.57
34197;BME280;36594;45.192;5.722;2023-05-09T13:36:07;98850.52;;;26.56;39.56
34197;BME280;36594;45.192;5.722;2023-05-09T13:38:55;98840.04;;;26.58;39.58
34197;BME280;36594;45.192;5.722;2023-05-09T13:41:44;98846.38;;;26.56;39.64
34197;BME280;36594;45.192;5.722;2023-05-09T13:44:32;98842.54;;;26.57;39.56
34197;BME280;36594;45.192;5.722;2023-05-09T13:47:20;98849.13;;;26.56;39.61
34197;BME280;36594;45.192;5.722;2023-05-09T13:50:10;98853.02;;;26.55;39.59
34197;BME280;36594;45.192;5.722;2023-05-09T13:52:59;98859.61;;;26.57;39.58
34197;BME280;36594;45.192;5.722;2023-05-09T13:55:48;98865.66;;;26.56;39.60
34197;BME280;36594;45.192;5.722;2023-05-09T13:58:36;98866.50;;;26.57;39.58
34197;BME280;36594;45.192;5.722;2023-05-09T14:01:25;98865.13;;;26.57;39.61
34197;BME280;36594;45.192;5.722;2023-05-09T14:04:13;98864.29;;;26.59;39.56
34197;BME280;36594;45.192;5.722;2023-05-09T14:07:01;98858.78;;;26.59;39.55
34197;BME280;36594;45.192;5.722;2023-05-09T14:09:51;98857.69;;;26.60;39.63
34197;BME280;36594;45.192;5.722;2023-05-09T14:12:40;98866.20;;;26.56;39.65
34197;BME280;36594;45.192;5.722;2023-05-09T14:15:30;98871.47;;;26.60;39.64
34197;BME280;36594;45.192;5.722;2023-05-09T14:18:18;98867.88;;;26.57;39.63
34197;BME280;36594;45.192;5.722;2023-05-09T14:21:07;98866.21;;;26.58;39.69
34197;BME280;36594;45.192;5.722;2023-05-09T14:23:55;98873.09;;;26.58;39.66
34197;BME280;36594;45.192;5.722;2023-05-09T14:26:43;98864.29;;;26.59;39.64
34197;BME280;36594;45.192;5.722;2023-05-09T14:29:32;98869.80;;;26.59;39.61
34197;BME280;36594;45.192;5.722;2023-05-09T14:32:23;98868.16;;;26.55;39.73
34197;BME280;36594;45.192;5.722;2023-05-09T14:35:12;98870.34;;;26.56;39.73
34197;BME280;36594;45.192;5.722;2023-05-09T14:38:01;98862.91;;;26.59;39.64
34197;BME280;36594;45.192;5.722;2023-05-09T14:40:50;98859.33;;;26.56;39.69
34197;BME280;36594;45.192;5.722;2023-05-09T14:43:38;98860.16;;;26.54;39.73
34197;BME280;36594;45.192;5.722;2023-05-09T14:46:27;98863.19;;;26.52;39.77
34197;BME280;36594;45.192;5.722;2023-05-09T14:49:15;98860.16;;;26.54;39.69
34197;BME280;36594;45.192;5.722;2023-05-09T14:52:03;98866.50;;;26.57;39.72
34197;BME280;36594;45.192;5.722;2023-05-09T14:54:52;98857.95;;;26.56;39.66
34197;BME280;36594;45.192;5.722;2023-05-09T14:57:40;98864.03;;;26.53;39.69
34197;BME280;36594;45.192;5.722;2023-05-09T15:00:28;98864.58;;;26.55;39.70
34197;BME280;36594;45.192;5.722;2023-05-09T15:03:17;98863.20;;;26.55;39.69
34197;BME280;36594;45.192;5.722;2023-05-09T15:06:05;98859.06;;;26.55;39.70